Time;durP1;ratioP1;P1;durP2;ratioP2;P2;SDS_P1;SDS_P2;PMS_P1;PMS_P2;Temp;Humidity;BMP_temperature;BMP_pressure;BME280_temperature;BME280_humidity;BME280_pressure;Samples;Min_cycle;Max_cycle;Signal;HPM_P1;HPM_P2
2021/09/26 00:02:00;;;;;;;34.33;30.63;;;22.00;81.40;;;;;;4954744;28;20043;-65
2021/09/26 00:04:27;;;;;;;32.80;29.40;;;22.00;80.70;;;;;;4955357;29;20490;-65
2021/09/26 00:06:53;;;;;;;32.95;29.35;;;22.10;81.00;;;;;;4951929;28;20043;-65
2021/09/26 00:09:18;;;;;;;33.25;29.48;;;22.10;80.70;;;;;;4954745;28;20078;-65
2021/09/26 00:11:44;;;;;;;32.83;29.30;;;22.10;81.00;;;;;;4954680;28;20538;-65
2021/09/26 00:14:10;;;;;;;34.17;30.48;;;22.00;80.90;;;;;;4954839;29;20030;-65
2021/09/26 00:16:36;;;;;;;33.22;29.48;;;22.00;81.60;;;;;;4953632;28;20070;-64
2021/09/26 00:19:02;;;;;;;33.63;30.15;;;22.00;82.00;;;;;;4954888;29;20475;-64
2021/09/26 00:21:28;;;;;;;34.30;30.58;;;22.00;81.70;;;;;;4953600;29;20035;-64
2021/09/26 00:23:56;;;;;;;34.28;30.67;;;22.00;81.90;;;;;;4953586;29;20027;-64
2021/09/26 00:26:22;;;;;;;33.28;29.80;;;22.00;82.10;;;;;;4945590;28;20031;-64
2021/09/26 00:28:47;;;;;;;31.52;27.95;;;22.00;81.80;;;;;;4953671;29;20045;-64
2021/09/26 00:31:13;;;;;;;33.40;29.88;;;22.00;82.00;;;;;;4953967;29;20155;-65
2021/09/26 00:33:38;;;;;;;33.03;28.60;;;22.00;81.80;;;;;;4954815;29;20039;-64
2021/09/26 00:36:05;;;;;;;32.80;29.35;;;22.00;81.60;;;;;;4955109;29;20453;-64
2021/09/26 00:38:30;;;;;;;31.67;28.27;;;22.10;81.90;;;;;;4954169;28;20031;-64
2021/09/26 00:40:56;;;;;;;33.85;28.25;;;22.00;81.60;;;;;;4955043;29;20174;-64
2021/09/26 00:43:22;;;;;;;33.97;30.58;;;21.90;81.80;;;;;;4953062;29;20031;-64
2021/09/26 00:45:47;;;;;;;32.22;28.90;;;22.00;82.10;;;;;;4954272;28;20024;-65
2021/09/26 00:48:13;;;;;;;34.30;30.77;;;22.10;82.00;;;;;;4953833;28;20047;-65
2021/09/26 00:50:39;;;;;;;35.75;31.27;;;21.90;82.10;;;;;;4954519;29;20034;-64
2021/09/26 00:53:05;;;;;;;34.45;30.65;;;21.90;82.50;;;;;;4969471;28;20078;-64
2021/09/26 00:55:31;;;;;;;31.60;28.25;;;21.90;82.40;;;;;;4956663;28;20133;-64
2021/09/26 00:57:58;;;;;;;33.70;29.80;;;22.00;82.70;;;;;;4972543;28;20030;-64
2021/09/26 01:00:24;;;;;;;32.10;28.88;;;22.00;81.90;;;;;;4974091;28;20109;-65
2021/09/26 01:02:50;;;;;;;33.30;29.85;;;22.00;82.20;;;;;;4973219;28;20434;-64
2021/09/26 01:05:18;;;;;;;33.78;30.38;;;22.00;82.40;;;;;;4974055;28;20109;-65
2021/09/26 01:08:06;;;;;;;33.22;29.70;;;21.90;82.80;;;;;;4973601;28;20241;-65
2021/09/26 01:10:44;;;;;;;31.52;28.42;;;21.90;82.60;;;;;;4974006;28;20058;-64
2021/09/26 01:13:22;;;;;;;31.98;28.63;;;21.90;83.30;;;;;;4973388;28;20031;-65
2021/09/26 01:16:06;;;;;;;33.55;29.23;;;22.00;83.40;;;;;;4957997;28;20027;-64
2021/09/26 01:19:02;;;;;;;31.25;28.23;;;22.00;84.00;;;;;;4971760;28;20030;-65
2021/09/26 01:21:52;;;;;;;30.88;27.63;;;22.00;83.60;;;;;;4973525;28;20334;-65
2021/09/26 01:24:41;;;;;;;30.70;27.40;;;22.00;82.60;;;;;;4956495;28;20030;-64
2021/09/26 01:27:14;;;;;;;30.65;26.55;;;21.90;82.70;;;;;;4972457;28;20030;-64
2021/09/26 01:30:18;;;;;;;30.30;25.27;;;21.90;82.40;;;;;;4974047;28;20023;-64
2021/09/26 01:32:58;;;;;;;30.17;26.70;;;22.00;83.40;;;;;;4955827;28;20392;-65
2021/09/26 01:35:26;;;;;;;28.00;25.17;;;21.90;82.80;;;;;;4973824;28;20477;-64
2021/09/26 01:37:59;;;;;;;28.92;25.40;;;21.90;83.00;;;;;;4973076;28;20041;-65
2021/09/26 01:40:51;;;;;;;29.27;25.77;;;21.90;82.50;;;;;;4973791;28;20074;-64
2021/09/26 01:43:21;;;;;;;27.02;24.25;;;22.00;82.50;;;;;;4972376;28;20154;-64
2021/09/26 01:45:52;;;;;;;29.83;24.98;;;21.90;82.50;;;;;;4973395;28;20105;-64
2021/09/26 01:48:23;;;;;;;28.35;23.13;;;22.00;82.70;;;;;;4967588;28;20477;-64
2021/09/26 01:50:51;;;;;;;27.48;24.75;;;22.00;83.30;;;;;;4954208;29;20401;-64
2021/09/26 01:53:20;;;;;;;26.20;23.45;;;22.00;81.90;;;;;;4953577;28;20390;-64
2021/09/26 01:55:49;;;;;;;27.02;24.48;;;22.00;82.10;;;;;;4953519;28;20073;-64
2021/09/26 01:58:16;;;;;;;28.73;25.88;;;22.00;83.00;;;;;;4952408;28;20124;-64
2021/09/26 02:00:43;;;;;;;28.83;25.73;;;22.00;82.90;;;;;;4957477;29;20047;-64
2021/09/26 02:03:10;;;;;;;28.67;24.40;;;22.00;82.60;;;;;;4956868;28;20043;-64
2021/09/26 02:05:40;;;;;;;31.08;25.48;;;22.00;83.00;;;;;;4957654;29;20047;-64
2021/09/26 02:08:07;;;;;;;31.50;28.30;;;22.00;83.60;;;;;;4956883;28;20085;-64
2021/09/26 02:10:34;;;;;;;30.80;27.00;;;22.00;82.40;;;;;;4956101;29;20028;-64
2021/09/26 02:13:00;;;;;;;32.90;28.05;;;22.00;82.00;;;;;;4956765;28;20024;-64
2021/09/26 02:15:27;;;;;;;30.50;27.08;;;22.10;82.30;;;;;;4957234;29;20118;-64
2021/09/26 02:17:54;;;;;;;33.88;30.15;;;22.10;81.90;;;;;;4956551;28;20125;-64
2021/09/26 02:20:21;;;;;;;35.78;29.75;;;22.10;81.60;;;;;;4957110;29;20119;-64
2021/09/26 02:22:49;;;;;;;34.85;30.27;;;22.10;81.00;;;;;;4957044;28;20355;-64
2021/09/26 02:25:16;;;;;;;32.97;29.35;;;22.00;81.60;;;;;;4956588;28;20078;-64
2021/09/26 02:27:42;;;;;;;38.63;31.17;;;22.10;81.40;;;;;;4956000;28;20466;-64
2021/09/26 02:30:09;;;;;;;36.03;32.17;;;22.10;81.00;;;;;;4957282;29;20385;-64
2021/09/26 02:32:35;;;;;;;36.72;32.83;;;22.10;80.60;;;;;;4956165;28;20038;-64
2021/09/26 02:35:02;;;;;;;38.28;33.90;;;22.10;80.00;;;;;;4957197;29;20031;-64
2021/09/26 02:37:27;;;;;;;37.65;33.55;;;22.10;79.90;;;;;;4956333;28;20075;-64
2021/09/26 02:39:53;;;;;;;38.88;34.60;;;22.00;79.80;;;;;;4956688;29;20023;-64
2021/09/26 02:42:31;;;;;;;41.15;36.85;;;22.00;79.40;;;;;;4938916;29;20173;-64
2021/09/26 02:45:08;;;;;;;43.28;37.33;;;22.00;79.90;;;;;;4957252;29;20054;-63
2021/09/26 02:47:41;;;;;;;45.75;39.47;;;22.00;78.90;;;;;;4956195;28;20384;-64
2021/09/26 02:50:07;;;;;;;45.40;40.28;;;22.00;78.80;;;;;;4976355;28;20141;-64
2021/09/26 02:52:34;;;;;;;47.88;41.28;;;22.00;78.60;;;;;;4975013;28;20532;-64
2021/09/26 02:55:01;;;;;;;49.92;44.35;;;21.90;78.30;;;;;;4975601;28;20022;-64
2021/09/26 02:57:27;;;;;;;47.72;42.70;;;21.90;78.50;;;;;;4973834;28;20072;-64
2021/09/26 02:59:52;;;;;;;49.95;43.60;;;22.00;77.90;;;;;;4975328;28;20027;-64
2021/09/26 03:02:25;;;;;;;53.78;44.50;;;22.00;78.20;;;;;;4975137;28;20030;-64
2021/09/26 03:04:51;;;;;;;49.70;43.78;;;22.00;78.10;;;;;;4975520;28;20031;-64
2021/09/26 03:07:17;;;;;;;51.60;44.55;;;22.00;77.90;;;;;;4975379;28;20027;-64
2021/09/26 03:09:42;;;;;;;51.63;44.72;;;22.00;78.30;;;;;;4974752;28;20031;-65
2021/09/26 03:12:13;;;;;;;50.75;44.47;;;22.00;78.30;;;;;;4974769;28;20054;-64
2021/09/26 03:14:39;;;;;;;54.08;44.63;;;21.90;77.60;;;;;;4975247;28;20477;-64
2021/09/26 03:17:04;;;;;;;52.92;44.80;;;21.80;78.90;;;;;;4974543;28;20033;-65
2021/09/26 03:19:30;;;;;;;51.55;45.83;;;21.90;79.10;;;;;;4975132;28;20035;-64
2021/09/26 03:21:55;;;;;;;55.17;45.75;;;21.80;79.90;;;;;;4974626;28;20433;-65
2021/09/26 03:24:21;;;;;;;51.97;45.47;;;21.80;79.50;;;;;;4957832;28;20046;-64
2021/09/26 03:26:47;;;;;;;52.67;45.33;;;21.80;79.90;;;;;;4973851;28;20046;-64
2021/09/26 03:29:12;;;;;;;55.78;46.78;;;21.80;80.00;;;;;;4974252;28;20039;-64
2021/09/26 03:31:38;;;;;;;51.47;45.47;;;21.80;80.00;;;;;;4974991;28;20477;-63
2021/09/26 03:34:03;;;;;;;51.17;43.95;;;21.70;80.20;;;;;;4974315;28;20030;-64
2021/09/26 03:36:29;;;;;;;48.38;42.80;;;21.70;80.80;;;;;;4974911;28;20053;-65
2021/09/26 03:38:54;;;;;;;49.47;44.08;;;21.70;80.80;;;;;;4974077;28;20034;-64
2021/09/26 03:41:20;;;;;;;50.60;43.00;;;21.80;81.00;;;;;;4974571;28;20473;-64
2021/09/26 03:43:46;;;;;;;47.53;42.30;;;21.80;80.90;;;;;;4974159;28;20126;-65
2021/09/26 03:46:49;;;;;;;47.60;40.95;;;21.80;81.10;;;;;;4973504;28;20039;-65
2021/09/26 03:49:14;;;;;;;42.67;38.10;;;21.90;82.10;;;;;;4972564;28;20130;-65
2021/09/26 03:51:42;;;;;;;45.10;40.17;;;21.70;82.10;;;;;;4974794;28;20033;-65
2021/09/26 03:54:07;;;;;;;42.60;37.40;;;21.70;82.20;;;;;;4973874;28;20512;-64
2021/09/26 03:56:33;;;;;;;45.22;38.75;;;21.80;82.20;;;;;;4973924;28;20022;-64
2021/09/26 03:58:59;;;;;;;45.92;39.63;;;21.80;82.20;;;;;;4974631;28;20038;-64
2021/09/26 04:01:25;;;;;;;44.80;39.75;;;21.80;81.60;;;;;;4973785;28;20034;-64
2021/09/26 04:03:51;;;;;;;46.55;41.45;;;21.70;81.90;;;;;;4974499;28;20034;-64
2021/09/26 04:06:16;;;;;;;47.15;40.22;;;21.70;82.20;;;;;;4973946;28;20369;-65
2021/09/26 04:08:42;;;;;;;44.85;39.92;;;21.70;82.20;;;;;;4974705;28;20030;-65
2021/09/26 04:11:09;;;;;;;44.60;37.58;;;21.80;82.10;;;;;;4974538;28;20022;-65
2021/09/26 04:13:35;;;;;;;44.40;39.53;;;21.80;82.10;;;;;;4956538;28;20030;-65
2021/09/26 04:16:01;;;;;;;48.72;36.85;;;21.80;82.10;;;;;;4974312;28;20022;-65
2021/09/26 04:18:26;;;;;;;42.20;37.70;;;21.80;81.80;;;;;;4973706;28;20532;-65
2021/09/26 04:20:52;;;;;;;41.72;37.22;;;21.80;82.00;;;;;;4973833;28;20049;-65
2021/09/26 04:23:18;;;;;;;42.25;37.38;;;21.90;81.80;;;;;;4973868;28;20106;-65
2021/09/26 04:25:44;;;;;;;40.90;36.25;;;21.80;81.90;;;;;;4973460;28;20384;-65
2021/09/26 04:28:09;;;;;;;42.05;37.47;;;21.80;82.00;;;;;;4953223;28;20114;-65
2021/09/26 04:30:36;;;;;;;41.33;36.17;;;21.70;82.30;;;;;;4954880;29;20042;-65
2021/09/26 04:33:02;;;;;;;38.70;34.45;;;21.70;82.30;;;;;;4968618;28;20023;-64
2021/09/26 04:35:28;;;;;;;39.55;34.08;;;21.70;83.00;;;;;;4957329;28;20093;-64
2021/09/26 04:37:54;;;;;;;38.50;34.33;;;21.60;83.00;;;;;;4973568;28;20035;-64
2021/09/26 04:40:20;;;;;;;39.03;33.67;;;21.70;83.40;;;;;;4974121;28;20048;-64
2021/09/26 04:42:46;;;;;;;37.67;33.58;;;21.70;83.00;;;;;;4955988;28;20042;-64
2021/09/26 04:45:12;;;;;;;39.47;32.90;;;21.60;82.80;;;;;;4956547;28;20550;-63
2021/09/26 04:47:38;;;;;;;40.40;34.42;;;21.60;82.50;;;;;;4972980;28;20031;-57
2021/09/26 04:50:06;;;;;;;39.33;33.15;;;21.60;83.20;;;;;;4954530;29;20063;-65
2021/09/26 04:52:33;;;;;;;39.50;34.35;;;21.60;83.10;;;;;;4954243;28;20078;-65
2021/09/26 04:54:59;;;;;;;37.80;32.95;;;21.70;82.70;;;;;;4954846;29;20030;-65
2021/09/26 04:57:25;;;;;;;41.45;33.20;;;21.60;82.80;;;;;;4952415;28;20039;-64
2021/09/26 04:59:50;;;;;;;37.10;31.17;;;21.60;82.80;;;;;;4933684;29;20067;-65
2021/09/26 05:02:16;;;;;;;39.88;31.92;;;21.60;83.20;;;;;;4924770;29;20039;-64
2021/09/26 05:04:42;;;;;;;38.40;33.65;;;21.60;83.40;;;;;;4954743;29;20035;-65
2021/09/26 05:07:07;;;;;;;35.55;31.35;;;21.50;83.90;;;;;;4954233;28;20397;-65
2021/09/26 05:09:33;;;;;;;34.90;30.60;;;21.50;84.40;;;;;;4933409;29;20028;-65
2021/09/26 05:11:58;;;;;;;35.33;31.55;;;21.50;84.60;;;;;;4939267;28;20047;-64
2021/09/26 05:14:24;;;;;;;34.80;30.77;;;21.50;84.40;;;;;;4954409;29;20043;-64
2021/09/26 05:16:50;;;;;;;34.35;30.30;;;21.50;84.50;;;;;;4953615;28;20042;-65
2021/09/26 05:19:16;;;;;;;35.25;30.95;;;21.60;84.50;;;;;;4954306;29;20516;-65
2021/09/26 05:21:41;;;;;;;33.38;29.75;;;21.50;84.60;;;;;;4953628;28;20144;-65
2021/09/26 05:24:07;;;;;;;33.78;28.92;;;21.50;85.10;;;;;;4954463;29;20058;-64
2021/09/26 05:26:33;;;;;;;35.05;29.70;;;21.50;85.30;;;;;;4952893;28;20031;-64
2021/09/26 05:28:58;;;;;;;32.50;28.50;;;21.50;85.30;;;;;;4954345;29;20032;-65
2021/09/26 05:31:24;;;;;;;35.00;31.10;;;21.50;85.60;;;;;;4954297;28;20038;-64
2021/09/26 05:33:50;;;;;;;30.92;27.63;;;21.60;85.50;;;;;;4956843;28;20062;-64
2021/09/26 05:36:15;;;;;;;29.83;26.25;;;21.60;85.30;;;;;;4940715;29;20118;-64
2021/09/26 05:38:41;;;;;;;31.48;28.13;;;21.60;85.50;;;;;;4939759;29;20035;-65
2021/09/26 05:41:06;;;;;;;33.05;28.88;;;21.60;85.70;;;;;;4958061;29;20043;-65
2021/09/26 05:43:32;;;;;;;32.08;28.58;;;21.60;85.70;;;;;;4957068;28;20041;-64
2021/09/26 05:45:57;;;;;;;34.00;28.08;;;21.60;86.00;;;;;;4957616;29;20027;-65
2021/09/26 05:48:23;;;;;;;30.02;26.25;;;21.70;85.50;;;;;;4963072;28;20035;-63
2021/09/26 05:50:50;;;;;;;34.03;28.70;;;21.60;85.50;;;;;;4977210;28;20404;-64
2021/09/26 05:53:16;;;;;;;32.17;27.60;;;21.60;85.40;;;;;;4976425;28;20019;-63
2021/09/26 05:55:41;;;;;;;34.17;27.05;;;21.70;85.80;;;;;;4976311;28;20047;-64
2021/09/26 05:58:07;;;;;;;32.20;28.75;;;21.60;86.20;;;;;;4976327;28;20054;-64
2021/09/26 06:00:33;;;;;;;32.50;28.10;;;21.50;86.30;;;;;;4976972;28;20035;-64
2021/09/26 06:02:58;;;;;;;30.60;26.75;;;21.60;86.20;;;;;;4976362;28;20058;-63
2021/09/26 06:05:24;;;;;;;32.30;27.70;;;21.50;86.60;;;;;;4976697;28;20034;-64
2021/09/26 06:07:50;;;;;;;30.23;26.90;;;21.50;86.60;;;;;;4976363;28;20073;-64
2021/09/26 06:10:16;;;;;;;34.15;28.90;;;21.60;86.60;;;;;;4976575;28;20082;-63
2021/09/26 06:12:41;;;;;;;33.20;29.60;;;21.60;86.00;;;;;;4975466;28;20034;-64
2021/09/26 06:15:08;;;;;;;34.63;28.80;;;21.60;85.70;;;;;;4975760;28;20030;-64
2021/09/26 06:17:34;;;;;;;34.42;28.83;;;21.60;85.40;;;;;;4974791;28;20027;-64
2021/09/26 06:20:01;;;;;;;32.45;28.58;;;21.70;85.50;;;;;;4971680;28;20058;-64
2021/09/26 06:22:27;;;;;;;33.80;30.15;;;21.70;85.10;;;;;;4975165;28;20054;-64
2021/09/26 06:24:53;;;;;;;33.88;30.20;;;21.60;85.40;;;;;;4975335;28;20447;-64
2021/09/26 06:27:20;;;;;;;31.95;27.95;;;21.60;86.20;;;;;;4975859;28;20190;-64
2021/09/26 06:29:46;;;;;;;36.97;29.23;;;21.60;85.70;;;;;;4976996;28;20041;-64
2021/09/26 06:32:11;;;;;;;30.85;27.55;;;21.50;86.20;;;;;;4975820;28;20041;-64
2021/09/26 06:34:37;;;;;;;31.27;27.90;;;21.60;86.50;;;;;;4976492;28;20103;-64
2021/09/26 06:37:05;;;;;;;33.22;27.92;;;21.50;86.30;;;;;;4974230;28;20045;-64
2021/09/26 06:39:31;;;;;;;32.50;28.25;;;21.50;87.30;;;;;;4958654;28;20082;-63
2021/09/26 06:41:57;;;;;;;32.90;28.60;;;21.40;88.20;;;;;;4976137;28;20373;-63
2021/09/26 06:44:23;;;;;;;32.72;29.20;;;21.40;88.60;;;;;;4975951;28;20034;-65
2021/09/26 06:46:48;;;;;;;31.33;28.02;;;21.40;88.30;;;;;;4975941;28;20105;-64
2021/09/26 06:49:14;;;;;;;39.08;31.42;;;21.30;90.10;;;;;;4958155;28;20086;-64
2021/09/26 06:51:40;;;;;;;54.97;39.15;;;21.10;93.00;;;;;;4959155;28;20035;-64
2021/09/26 06:54:05;;;;;;;50.92;41.03;;;20.50;99.90;;;;;;4975080;28;20027;-63
2021/09/26 06:56:31;;;;;;;76.75;53.22;;;19.80;99.90;;;;;;4975725;28;20035;-62
2021/09/26 06:58:57;;;;;;;107.85;64.20;;;19.50;99.90;;;;;;4974142;28;20454;-63
2021/09/26 07:01:22;;;;;;;98.93;65.22;;;19.60;99.90;;;;;;4975724;28;20118;-63
2021/09/26 07:03:48;;;;;;;134.32;71.53;;;19.60;99.90;;;;;;4974871;28;20473;-63
2021/09/26 07:06:13;;;;;;;124.72;71.22;;;19.70;99.90;;;;;;4958170;28;20033;-63
2021/09/26 07:08:40;;;;;;;109.85;65.80;;;20.90;99.90;;;;;;4975081;28;20476;-64
2021/09/26 07:11:05;;;;;;;109.25;69.03;;;21.10;99.90;;;;;;4976415;28;20101;-64
2021/09/26 07:13:31;;;;;;;99.90;64.15;;;21.00;99.90;;;;;;4974510;28;20034;-63
2021/09/26 07:15:57;;;;;;;99.38;62.97;;;21.30;99.90;;;;;;4974836;28;20050;-63
2021/09/26 07:18:23;;;;;;;110.43;68.63;;;20.80;99.90;;;;;;4974511;28;20049;-62
2021/09/26 07:20:48;;;;;;;147.50;81.85;;;20.70;99.90;;;;;;4975569;28;20066;-63
2021/09/26 07:23:14;;;;;;;103.60;68.15;;;21.30;99.90;;;;;;4974626;28;20019;-63
2021/09/26 07:25:39;;;;;;;142.18;77.15;;;21.50;99.90;;;;;;4958195;28;20066;-63
2021/09/26 07:28:05;;;;;;;104.07;65.40;;;20.50;99.90;;;;;;4956955;28;20022;-64
2021/09/26 07:30:31;;;;;;;133.02;72.30;;;20.60;99.90;;;;;;4975528;28;20384;-64
2021/09/26 07:32:58;;;;;;;126.03;69.47;;;20.70;99.90;;;;;;4973384;28;20037;-64
2021/09/26 07:35:23;;;;;;;105.82;65.95;;;21.70;99.90;;;;;;4974672;28;20026;-63
2021/09/26 07:37:50;;;;;;;152.80;75.95;;;21.90;99.90;;;;;;4971677;28;20049;-63
2021/09/26 07:40:16;;;;;;;150.90;77.32;;;22.20;99.90;;;;;;4973792;28;20037;-63
2021/09/26 07:42:41;;;;;;;114.57;67.15;;;22.20;99.90;;;;;;4974242;28;20107;-63
2021/09/26 07:45:10;;;;;;;130.45;73.43;;;22.30;99.90;;;;;;4978163;28;20114;-63
2021/09/26 07:47:36;;;;;;;134.60;72.20;;;22.40;99.90;;;;;;4989750;28;20373;-63
2021/09/26 07:50:03;;;;;;;152.85;79.38;;;22.50;99.90;;;;;;4974590;28;20069;-64
2021/09/26 07:52:28;;;;;;;133.60;75.03;;;22.70;99.90;;;;;;4974131;28;20085;-64
2021/09/26 07:54:56;;;;;;;122.50;70.28;;;22.60;99.90;;;;;;4974113;28;20034;-64
2021/09/26 07:57:22;;;;;;;153.27;76.78;;;22.70;99.90;;;;;;4973895;28;20026;-64
2021/09/26 07:59:49;;;;;;;117.88;67.88;;;22.90;99.90;;;;;;4974633;28;20110;-63
2021/09/26 08:02:15;;;;;;;131.43;69.95;;;22.80;99.90;;;;;;4956481;28;20039;-64
2021/09/26 08:04:40;;;;;;;130.60;70.72;;;22.80;99.90;;;;;;4974232;28;20034;-63
2021/09/26 08:07:06;;;;;;;110.32;65.30;;;22.90;99.90;;;;;;4974706;28;20034;-65
2021/09/26 08:09:31;;;;;;;130.75;70.40;;;23.00;99.90;;;;;;4973604;28;20059;-63
2021/09/26 08:11:57;;;;;;;100.18;60.45;;;23.10;99.90;;;;;;4973620;28;20035;-64
2021/09/26 08:14:23;;;;;;;127.90;69.60;;;23.00;99.90;;;;;;4973151;28;20015;-64
2021/09/26 08:16:49;;;;;;;116.05;67.18;;;22.90;99.90;;;;;;4956865;28;20082;-63
2021/09/26 08:19:14;;;;;;;117.05;67.65;;;23.10;99.90;;;;;;4973500;28;20061;-63
2021/09/26 08:21:40;;;;;;;96.10;61.33;;;23.10;99.90;;;;;;4973696;28;20038;-63
2021/09/26 08:24:07;;;;;;;99.43;62.72;;;23.00;99.90;;;;;;4955733;28;20026;-63
2021/09/26 08:26:35;;;;;;;106.13;63.55;;;22.90;99.90;;;;;;4974485;28;20031;-64
2021/09/26 08:29:01;;;;;;;105.70;64.50;;;22.80;99.90;;;;;;4956268;28;20038;-64
2021/09/26 08:31:26;;;;;;;91.15;59.85;;;22.90;99.90;;;;;;4974273;28;20098;-64
2021/09/26 08:33:52;;;;;;;104.38;62.15;;;22.80;99.90;;;;;;4956157;28;20050;-64
2021/09/26 08:36:18;;;;;;;79.20;50.88;;;22.90;99.90;;;;;;4974080;28;20026;-64
2021/09/26 08:38:43;;;;;;;80.32;50.33;;;22.80;99.90;;;;;;4973126;28;20041;-64
2021/09/26 08:41:09;;;;;;;71.55;46.35;;;22.80;99.90;;;;;;4973805;28;20062;-64
2021/09/26 08:43:35;;;;;;;69.47;47.28;;;22.80;99.90;;;;;;4973647;28;20027;-64
2021/09/26 08:46:01;;;;;;;60.97;41.78;;;22.70;99.90;;;;;;4973776;28;20027;-63
2021/09/26 08:48:31;;;;;;;74.20;48.45;;;22.50;99.90;;;;;;4959589;28;20552;-63
2021/09/26 08:50:57;;;;;;;79.38;49.58;;;22.60;99.90;;;;;;4974312;28;20433;-63
2021/09/26 08:53:25;;;;;;;79.35;51.20;;;22.70;99.90;;;;;;4973049;28;20026;-63
2021/09/26 08:55:52;;;;;;;79.22;50.80;;;22.60;99.90;;;;;;4973984;28;20031;-63
2021/09/26 08:58:19;;;;;;;87.63;54.10;;;22.70;99.90;;;;;;4973089;28;20027;-63
2021/09/26 09:00:45;;;;;;;76.65;50.70;;;22.70;99.90;;;;;;4973603;28;20066;-63
2021/09/26 09:03:12;;;;;;;76.45;50.60;;;22.60;99.90;;;;;;4973336;28;20054;-64
2021/09/26 09:05:40;;;;;;;63.70;44.35;;;22.60;99.90;;;;;;4973711;28;20027;-64
2021/09/26 09:08:13;;;;;;;68.05;45.35;;;22.50;99.90;;;;;;4976304;28;20023;-64
2021/09/26 09:10:45;;;;;;;68.63;46.15;;;22.40;99.90;;;;;;4977863;28;20031;-63
2021/09/26 09:13:12;;;;;;;68.88;47.17;;;22.40;99.90;;;;;;4975321;28;20042;-64
2021/09/26 09:15:49;;;;;;;73.75;49.00;;;22.30;99.90;;;;;;4977665;28;20102;-63
2021/09/26 09:18:15;;;;;;;68.78;45.28;;;22.30;99.90;;;;;;4977227;28;20058;-63
2021/09/26 09:20:40;;;;;;;75.60;48.33;;;22.10;99.90;;;;;;4977423;28;20062;-64
2021/09/26 09:23:17;;;;;;;68.18;46.88;;;22.10;99.90;;;;;;4977109;28;20039;-63
2021/09/26 09:25:47;;;;;;;68.70;46.90;;;22.20;99.90;;;;;;4977585;28;20027;-63
2021/09/26 09:28:23;;;;;;;64.63;45.22;;;22.50;99.90;;;;;;4976821;28;20025;-64
2021/09/26 09:30:52;;;;;;;60.88;44.67;;;22.40;99.90;;;;;;4977595;28;20033;-63
2021/09/26 09:33:19;;;;;;;64.55;46.22;;;22.30;99.90;;;;;;4977091;28;20085;-63
2021/09/26 09:35:49;;;;;;;93.30;68.82;;;22.20;99.90;;;;;;4977338;28;20435;-63
2021/09/26 09:38:29;;;;;;;65.15;44.55;;;22.10;99.90;;;;;;4958675;28;20038;-63
2021/09/26 09:40:56;;;;;;;60.75;44.45;;;22.20;99.90;;;;;;4977045;28;20491;-63
2021/09/26 09:43:23;;;;;;;57.95;44.40;;;22.10;99.90;;;;;;4970498;28;20458;-63
2021/09/26 09:45:48;;;;;;;57.42;45.53;;;22.00;99.90;;;;;;4957775;29;20074;-62
2021/09/26 09:48:18;;;;;;;58.13;44.88;;;22.00;99.90;;;;;;4956409;28;20082;-63
2021/09/26 09:50:47;;;;;;;57.72;44.97;;;21.80;99.90;;;;;;4940474;29;20027;-63
2021/09/26 09:53:22;;;;;;;51.65;42.42;;;21.80;99.90;;;;;;4957085;28;20334;-63
2021/09/26 09:55:59;;;;;;;59.53;43.80;;;21.60;99.90;;;;;;4957805;28;20028;-63
2021/09/26 09:58:25;;;;;;;60.60;46.60;;;21.60;99.90;;;;;;4957278;28;20093;-64
2021/09/26 10:00:57;;;;;;;62.83;47.53;;;21.50;99.90;;;;;;4957556;28;20441;-64
2021/09/26 10:03:41;;;;;;;59.35;43.70;;;21.70;99.90;;;;;;4957116;28;20106;-64
2021/09/26 10:06:25;;;;;;;63.97;47.13;;;21.60;99.90;;;;;;4957675;29;20114;-64
2021/09/26 10:08:52;;;;;;;67.57;47.13;;;21.50;99.90;;;;;;4956630;28;20031;-64
2021/09/26 10:11:18;;;;;;;52.67;42.38;;;21.60;99.90;;;;;;4957444;28;20118;-64
2021/09/26 10:13:45;;;;;;;52.05;42.40;;;21.60;99.90;;;;;;4956001;28;20034;-64
2021/09/26 10:16:11;;;;;;;57.42;46.80;;;21.40;99.90;;;;;;4957526;28;20037;-64
2021/09/26 10:18:39;;;;;;;55.92;43.28;;;21.10;99.90;;;;;;4956315;28;20031;-64
2021/09/26 10:21:06;;;;;;;53.58;43.72;;;20.90;99.90;;;;;;4956565;28;20121;-64
2021/09/26 10:23:33;;;;;;;53.28;42.28;;;21.10;99.90;;;;;;4956257;28;20023;-64
2021/09/26 10:26:00;;;;;;;56.35;45.10;;;21.00;99.90;;;;;;4956833;28;20054;-63
2021/09/26 10:28:29;;;;;;;58.00;46.80;;;20.90;99.90;;;;;;4955467;28;20035;-64
2021/09/26 10:30:57;;;;;;;57.45;45.10;;;20.80;99.90;;;;;;4953132;28;20067;-63
2021/09/26 10:33:27;;;;;;;56.97;45.17;;;20.90;99.90;;;;;;4941040;28;20027;-63
2021/09/26 10:35:54;;;;;;;56.60;44.72;;;20.80;99.90;;;;;;4956996;28;20123;-63
2021/09/26 10:38:21;;;;;;;60.45;46.53;;;20.80;99.90;;;;;;4955327;28;20114;-64
2021/09/26 10:40:47;;;;;;;54.38;45.47;;;21.00;99.90;;;;;;4956793;28;20488;-63
2021/09/26 10:43:27;;;;;;;52.45;42.47;;;20.90;99.90;;;;;;4954795;28;20098;-62
2021/09/26 10:46:19;;;;;;;50.65;42.10;;;20.90;99.90;;;;;;4955485;29;20038;-62
2021/09/26 10:49:07;;;;;;;55.42;44.92;;;21.00;99.90;;;;;;4964979;28;20497;-63
2021/09/26 10:51:47;;;;;;;56.65;45.05;;;21.00;99.90;;;;;;4975867;28;20138;-63
2021/09/26 10:54:36;;;;;;;48.55;41.05;;;20.90;99.90;;;;;;4974978;28;20056;-63
2021/09/26 10:57:07;;;;;;;53.38;43.42;;;21.00;99.90;;;;;;4975034;28;20026;-62
2021/09/26 10:59:36;;;;;;;51.55;42.55;;;20.90;99.90;;;;;;4971265;28;20485;-63
2021/09/26 11:02:22;;;;;;;56.90;45.83;;;20.80;99.90;;;;;;4975608;28;20047;-63
2021/09/26 11:04:49;;;;;;;56.25;43.70;;;20.60;99.90;;;;;;4974623;28;20058;-62
2021/09/26 11:07:22;;;;;;;57.60;43.65;;;20.40;99.90;;;;;;4975759;28;20037;-66
2021/09/26 11:09:53;;;;;;;50.88;40.42;;;20.40;99.90;;;;;;4958064;28;20033;-63
2021/09/26 11:12:40;;;;;;;59.35;42.92;;;20.40;99.90;;;;;;4974926;28;20026;-63
2021/09/26 11:15:06;;;;;;;56.30;44.55;;;20.40;99.90;;;;;;4973931;28;20079;-63
2021/09/26 11:17:48;;;;;;;55.08;43.30;;;20.50;99.90;;;;;;4975651;28;20023;-63
2021/09/26 11:20:26;;;;;;;52.42;41.78;;;20.50;99.90;;;;;;4974749;28;20042;-63
2021/09/26 11:23:04;;;;;;;50.83;41.05;;;20.30;99.90;;;;;;4975697;28;20384;-63
2021/09/26 11:25:54;;;;;;;56.47;43.53;;;20.50;99.90;;;;;;4974358;28;20038;-63
2021/09/26 11:28:28;;;;;;;54.80;42.35;;;20.50;99.90;;;;;;4972649;28;20027;-63
2021/09/26 11:30:54;;;;;;;54.63;42.30;;;20.30;99.90;;;;;;4972167;28;20493;-62
2021/09/26 11:33:19;;;;;;;55.03;41.28;;;20.30;99.90;;;;;;4972610;28;20023;-63
2021/09/26 11:35:45;;;;;;;58.15;46.53;;;20.20;99.90;;;;;;4972849;28;20041;-63
2021/09/26 11:38:19;;;;;;;49.97;40.63;;;20.20;99.90;;;;;;4972261;28;20035;-63
2021/09/26 11:41:05;;;;;;;50.33;39.35;;;20.00;99.90;;;;;;4973190;28;20042;-63
2021/09/26 11:43:38;;;;;;;48.67;38.30;;;19.80;99.90;;;;;;4973052;28;20023;-63
2021/09/26 11:46:21;;;;;;;46.67;38.28;;;19.80;99.90;;;;;;4973815;28;20092;-63
2021/09/26 11:48:47;;;;;;;51.47;40.13;;;19.90;99.90;;;;;;4971899;28;20055;-63
2021/09/26 11:51:14;;;;;;;52.53;41.40;;;20.00;99.90;;;;;;4972825;28;20069;-63
2021/09/26 11:53:42;;;;;;;50.72;41.72;;;19.90;99.90;;;;;;4972138;28;20463;-63
2021/09/26 11:56:27;;;;;;;49.78;38.67;;;20.00;99.90;;;;;;4956309;28;20070;-63
2021/09/26 11:59:01;;;;;;;52.88;41.58;;;19.80;99.90;;;;;;4972124;28;20737;-63
2021/09/26 12:01:35;;;;;;;51.25;39.42;;;19.80;99.90;;;;;;4972442;28;20042;-64
2021/09/26 12:04:20;;;;;;;56.83;41.30;;;19.70;99.90;;;;;;4970645;28;20130;-63
2021/09/26 12:06:50;;;;;;;;;;;19.80;99.90;;;;;;4973061;28;20039;-63
2021/09/26 12:09:34;;;;;;;53.47;41.33;;;19.90;99.90;;;;;;4972536;28;19921;-63
2021/09/26 12:12:02;;;;;;;51.92;38.67;;;20.00;99.90;;;;;;4966379;28;20052;-63
2021/09/26 12:14:29;;;;;;;53.53;40.78;;;20.00;99.90;;;;;;4971454;28;20511;-63
2021/09/26 12:17:01;;;;;;;53.85;41.35;;;20.00;99.90;;;;;;4973058;28;20025;-63
2021/09/26 12:19:28;;;;;;;52.97;40.45;;;20.00;99.90;;;;;;4972201;28;20476;-63
2021/09/26 12:22:06;;;;;;;51.95;39.80;;;20.00;99.90;;;;;;4973322;28;20409;-63
2021/09/26 12:24:46;;;;;;;57.40;41.20;;;19.90;99.90;;;;;;4971761;28;20034;-63
2021/09/26 12:27:36;;;;;;;46.38;37.03;;;19.90;99.90;;;;;;4972078;28;20426;-63
2021/09/26 12:30:14;;;;;;;54.33;38.92;;;19.90;99.90;;;;;;4964368;28;20047;-63
2021/09/26 12:32:56;;;;;;;56.33;41.13;;;19.80;99.90;;;;;;4972078;28;20476;-63
2021/09/26 12:35:56;;;;;;;56.03;40.90;;;19.80;99.90;;;;;;4970671;28;20031;-66